Time;durP1;ratioP1;P1;durP2;ratioP2;P2;SDS_P1;SDS_P2;PMS_P1;PMS_P2;Temp;Humidity;BMP_temperature;BMP_pressure;BME280_temperature;BME280_humidity;BME280_pressure;Samples;Min_cycle;Max_cycle;Signal;HPM_P1;HPM_P2
2021/09/25 00:02:04;;;;;;;12.25;7.32;;;;;;;18.42;99.39;101507.66;4978227;28;20072;-62
2021/09/25 00:04:31;;;;;;;11.18;6.93;;;;;;;18.48;99.83;101507.75;4970048;28;21383;-62
2021/09/25 00:06:57;;;;;;;11.65;7.88;;;;;;;18.28;100.00;101511.94;4973507;28;20093;-62
2021/09/25 00:09:24;;;;;;;11.35;7.28;;;;;;;18.20;100.00;101512.03;4975032;28;20138;-62
2021/09/25 00:11:51;;;;;;;13.52;7.55;;;;;;;17.81;100.00;101513.78;4972044;28;20866;-62
2021/09/25 00:14:17;;;;;;;14.65;7.10;;;;;;;17.76;100.00;101516.97;4978196;28;20637;-62
2021/09/25 00:16:44;;;;;;;13.90;7.25;;;;;;;17.68;100.00;101516.19;4973107;28;20054;-61
2021/09/25 00:19:10;;;;;;;13.30;6.65;;;;;;;17.65;100.00;101516.56;4974210;28;20084;-61
2021/09/25 00:21:37;;;;;;;13.27;7.90;;;;;;;17.52;100.00;101510.00;4965528;28;20098;-62
2021/09/25 00:24:04;;;;;;;13.27;7.97;;;;;;;17.38;100.00;101510.75;4971324;28;20142;-62
2021/09/25 00:26:31;;;;;;;14.07;8.55;;;;;;;17.64;100.00;101514.91;4975489;28;20085;-62
2021/09/25 00:28:57;;;;;;;14.32;7.35;;;;;;;17.42;100.00;101509.38;4966451;28;20469;-62
2021/09/25 00:31:24;;;;;;;12.18;7.10;;;;;;;17.30;100.00;101508.97;4976085;28;20056;-62
2021/09/25 00:33:50;;;;;;;11.52;6.95;;;;;;;17.50;100.00;101503.22;4957581;28;20091;-62
2021/09/25 00:36:17;;;;;;;14.38;7.93;;;;;;;17.79;100.00;101499.88;4975988;28;20149;-62
2021/09/25 00:38:44;;;;;;;15.93;7.38;;;;;;;17.82;100.00;101507.50;4971298;28;20128;-61
2021/09/25 00:41:10;;;;;;;15.00;8.07;;;;;;;17.74;100.00;101503.06;4976655;28;20145;-61
2021/09/25 00:43:37;;;;;;;15.45;7.47;;;;;;;17.42;100.00;101506.75;4981706;28;20141;-61
2021/09/25 00:46:04;;;;;;;13.52;7.35;;;;;;;17.87;100.00;101506.97;4967494;28;20417;-60
2021/09/25 00:48:30;;;;;;;13.25;7.43;;;;;;;18.01;100.00;101500.06;4977974;28;20131;-62
2021/09/25 00:50:58;;;;;;;12.33;7.30;;;;;;;17.73;100.00;101501.41;4970853;28;20077;-62
2021/09/25 00:53:25;;;;;;;15.65;8.20;;;;;;;17.89;100.00;101510.28;4981678;28;20137;-60
2021/09/25 00:55:52;;;;;;;17.40;6.95;;;;;;;17.68;100.00;101516.19;4970616;28;20748;-62
2021/09/25 00:58:18;;;;;;;12.10;7.38;;;;;;;17.72;100.00;101497.09;4978908;28;20147;-62
2021/09/25 01:00:45;;;;;;;15.48;8.07;;;;;;;17.64;100.00;101515.75;4974173;28;20153;-62
2021/09/25 01:03:12;;;;;;;12.40;7.65;;;;;;;17.94;100.00;101499.97;4970776;28;20066;-62
2021/09/25 01:05:41;;;;;;;12.40;8.18;;;;;;;17.90;100.00;101504.78;4979401;28;20411;-62
2021/09/25 01:08:08;;;;;;;24.42;8.27;;;;;;;17.96;100.00;101511.22;4973689;28;20074;-63
2021/09/25 01:10:34;;;;;;;14.13;7.97;;;;;;;18.01;100.00;101506.19;4977254;28;20054;-62
2021/09/25 01:13:01;;;;;;;13.00;7.88;;;;;;;17.72;100.00;101510.38;4971726;28;20097;-62
2021/09/25 01:15:27;;;;;;;19.20;8.23;;;;;;;17.74;100.00;101510.22;4971149;28;20057;-62
2021/09/25 01:17:54;;;;;;;15.93;8.38;;;;;;;17.79;100.00;101508.66;4978026;28;20580;-62
2021/09/25 01:20:20;;;;;;;16.35;8.50;;;;;;;17.68;100.00;101514.38;4970043;28;20073;-61
2021/09/25 01:22:47;;;;;;;17.63;8.77;;;;;;;17.58;100.00;101511.13;4980536;28;20050;-63
2021/09/25 01:25:13;;;;;;;20.80;8.88;;;;;;;17.83;100.00;101501.16;4972936;28;20057;-62
2021/09/25 01:27:40;;;;;;;19.50;9.05;;;;;;;17.67;100.00;101502.09;4975628;28;20050;-61
2021/09/25 01:30:11;;;;;;;20.88;10.07;;;;;;;17.55;100.00;101512.31;4963348;28;20483;-61
2021/09/25 01:32:39;;;;;;;14.90;8.60;;;;;;;17.79;100.00;101513.94;4978414;28;20192;-61
2021/09/25 01:35:06;;;;;;;19.10;9.57;;;;;;;17.76;100.00;101505.53;4977790;28;20460;-62
2021/09/25 01:37:33;;;;;;;19.42;9.93;;;;;;;17.62;100.00;101516.91;4971223;28;20153;-62
2021/09/25 01:40:00;;;;;;;17.85;10.40;;;;;;;17.47;100.00;101512.34;4981753;28;20137;-62
2021/09/25 01:42:26;;;;;;;19.13;9.30;;;;;;;17.33;100.00;101513.94;4968102;28;20086;-62
2021/09/25 01:44:53;;;;;;;21.25;10.13;;;;;;;17.35;100.00;101516.41;4972848;28;20077;-62
2021/09/25 01:47:20;;;;;;;17.83;9.18;;;;;;;17.64;100.00;101509.59;4969159;28;21003;-61
2021/09/25 01:49:48;;;;;;;20.33;10.15;;;;;;;17.79;100.00;101511.28;4980997;28;20476;-61
2021/09/25 01:52:18;;;;;;;19.70;10.73;;;;;;;17.78;100.00;101503.53;4976447;28;20454;-61
2021/09/25 01:54:45;;;;;;;21.17;10.50;;;;;;;18.05;100.00;101512.78;4974528;28;20141;-61
2021/09/25 01:57:12;;;;;;;22.53;10.87;;;;;;;17.74;100.00;101502.25;4968534;28;20169;-61
2021/09/25 01:59:39;;;;;;;23.90;11.02;;;;;;;17.70;100.00;101507.06;4973743;28;20288;-62
2021/09/25 02:02:06;;;;;;;21.00;11.57;;;;;;;17.49;100.00;101499.75;4977247;28;20054;-62
2021/09/25 02:04:35;;;;;;;21.50;10.23;;;;;;;17.76;100.00;101508.19;4972445;28;20524;-62
2021/09/25 02:07:02;;;;;;;23.27;9.48;;;;;;;17.73;100.00;101500.56;4975791;28;20294;-60
2021/09/25 02:09:28;;;;;;;24.02;11.68;;;;;;;17.62;100.00;101509.78;4974274;28;20121;-62
2021/09/25 02:11:55;;;;;;;22.92;11.63;;;;;;;17.47;100.00;101504.41;4962646;28;20150;-63
2021/09/25 02:14:22;;;;;;;24.52;10.45;;;;;;;17.64;100.00;101513.09;4977371;28;20054;-62
2021/09/25 02:16:48;;;;;;;20.83;10.05;;;;;;;17.86;100.00;101508.00;4968675;28;20140;-62
2021/09/25 02:19:15;;;;;;;21.73;10.57;;;;;;;17.82;100.00;101502.19;4977824;28;20133;-62
2021/09/25 02:21:41;;;;;;;20.75;10.38;;;;;;;17.65;100.00;101512.06;4969022;28;20074;-62
2021/09/25 02:24:08;;;;;;;18.45;10.60;;;;;;;17.40;100.00;101508.75;4975067;28;20138;-62
2021/09/25 02:26:34;;;;;;;22.73;10.40;;;;;;;17.59;100.00;101507.47;4973598;28;20058;-62
2021/09/25 02:29:01;;;;;;;23.33;11.38;;;;;;;17.66;100.00;101499.63;4972496;28;20047;-61
2021/09/25 02:31:27;;;;;;;19.08;9.68;;;;;;;17.66;100.00;101504.94;4978432;28;20046;-62
2021/09/25 02:33:54;;;;;;;20.75;11.18;;;;;;;17.71;100.00;101492.78;4975805;28;20050;-62
2021/09/25 02:36:21;;;;;;;19.42;11.05;;;;;;;17.70;100.00;101491.16;4981649;28;20138;-61
2021/09/25 02:38:47;;;;;;;23.88;10.65;;;;;;;17.78;100.00;101487.63;4969199;28;20133;-62
2021/09/25 02:41:14;;;;;;;22.95;10.38;;;;;;;17.65;100.00;101485.53;4980241;28;20081;-62
2021/09/25 02:43:41;;;;;;;20.60;9.90;;;;;;;17.72;100.00;101483.84;4981384;28;20146;-61
2021/09/25 02:46:08;;;;;;;22.38;11.02;;;;;;;17.55;100.00;101482.31;4979698;28;20492;-61
2021/09/25 02:48:34;;;;;;;27.63;11.48;;;;;;;17.04;100.00;101500.50;4982210;28;20046;-61
2021/09/25 02:51:01;;;;;;;23.13;11.63;;;;;;;16.84;100.00;101489.44;4973128;28;20081;-61
2021/09/25 02:53:29;;;;;;;25.63;11.48;;;;;;;16.72;100.00;101492.47;4975232;28;20070;-62
2021/09/25 02:55:55;;;;;;;23.77;12.40;;;;;;;17.04;100.00;101490.72;4979371;28;20133;-61
2021/09/25 02:58:22;;;;;;;24.75;12.02;;;;;;;17.36;100.00;101492.34;4980603;28;20133;-62
2021/09/25 03:00:48;;;;;;;23.00;11.23;;;;;;;17.44;100.00;101498.63;4982311;28;20084;-60
2021/09/25 03:03:15;;;;;;;20.70;10.88;;;;;;;17.26;100.00;101501.53;4973757;28;20062;-61
2021/09/25 03:05:42;;;;;;;24.33;11.68;;;;;;;17.52;100.00;101501.22;4979443;28;20081;-62
2021/09/25 03:08:08;;;;;;;24.77;12.25;;;;;;;17.44;100.00;101499.44;4969155;28;20168;-61
2021/09/25 03:10:35;;;;;;;27.73;11.98;;;;;;;17.15;100.00;101498.28;4984378;28;20141;-62
2021/09/25 03:13:02;;;;;;;24.42;12.15;;;;;;;17.10;100.00;101505.09;4974426;28;20081;-61
2021/09/25 03:15:28;;;;;;;19.77;10.82;;;;;;;16.97;100.00;101501.19;4985094;28;20165;-61
2021/09/25 03:17:55;;;;;;;22.45;11.18;;;;;;;17.02;100.00;101500.66;4982049;28;20050;-61
2021/09/25 03:20:21;;;;;;;28.02;12.57;;;;;;;16.85;100.00;101496.41;4969545;28;20141;-61
2021/09/25 03:22:48;;;;;;;24.70;11.77;;;;;;;17.15;100.00;101506.22;4975288;28;20081;-61
2021/09/25 03:25:15;;;;;;;24.92;11.55;;;;;;;17.39;100.00;101507.09;4975226;28;20061;-61
2021/09/25 03:27:43;;;;;;;25.25;12.80;;;;;;;17.39;100.00;101515.88;4979653;28;20081;-61
2021/09/25 03:30:11;;;;;;;23.30;11.63;;;;;;;17.47;100.00;101509.72;4975349;28;20148;-61
2021/09/25 03:32:38;;;;;;;26.92;12.40;;;;;;;17.55;100.00;101508.84;4977889;28;20184;-62
2021/09/25 03:35:06;;;;;;;24.92;12.82;;;;;;;17.61;100.00;101512.63;4978844;28;20054;-61
2021/09/25 03:37:33;;;;;;;23.85;12.35;;;;;;;17.52;100.00;101517.13;4974305;28;20074;-61
2021/09/25 03:39:59;;;;;;;24.23;12.27;;;;;;;17.62;100.00;101514.25;4980631;28;20068;-62
2021/09/25 03:42:26;;;;;;;27.38;12.85;;;;;;;17.71;100.00;101514.00;4975678;28;20508;-62
2021/09/25 03:44:52;;;;;;;21.67;11.48;;;;;;;17.81;100.00;101512.97;4973908;28;20542;-62
2021/09/25 03:47:19;;;;;;;24.55;12.45;;;;;;;17.82;100.00;101507.50;4970326;28;20593;-61
2021/09/25 03:49:45;;;;;;;24.50;12.20;;;;;;;17.88;100.00;101513.94;4974200;28;20136;-62
2021/09/25 03:52:12;;;;;;;25.48;13.35;;;;;;;17.82;100.00;101514.59;4977752;28;20434;-61
2021/09/25 03:54:38;;;;;;;27.52;13.55;;;;;;;17.39;100.00;101518.53;4974389;28;20154;-62
2021/09/25 03:57:05;;;;;;;28.73;12.80;;;;;;;17.53;100.00;101518.78;4977459;28;20168;-62
2021/09/25 03:59:31;;;;;;;27.92;13.75;;;;;;;17.67;100.00;101502.09;4973122;28;20133;-62
2021/09/25 04:01:58;;;;;;;30.17;13.80;;;;;;;17.72;100.00;101506.88;4978311;28;20496;-62
2021/09/25 04:04:25;;;;;;;26.95;13.07;;;;;;;17.52;100.00;101501.22;4967752;28;20403;-63
2021/09/25 04:06:52;;;;;;;27.75;11.88;;;;;;;16.93;100.00;101512.28;4982722;28;20145;-63
2021/09/25 04:09:18;;;;;;;27.00;12.98;;;;;;;16.71;100.00;101509.34;4977777;28;20171;-62
2021/09/25 04:11:48;;;;;;;24.98;13.02;;;;;;;16.64;100.00;101505.72;4975908;28;20082;-61
2021/09/25 04:14:19;;;;;;;24.42;11.98;;;;;;;16.58;100.00;101509.88;4977518;28;20837;-62
2021/09/25 04:16:46;;;;;;;23.63;12.15;;;;;;;16.91;100.00;101508.97;4968050;28;20086;-62
2021/09/25 04:19:13;;;;;;;28.27;13.23;;;;;;;17.04;100.00;101503.97;4977295;28;20606;-62
2021/09/25 04:21:40;;;;;;;26.17;13.95;;;;;;;17.15;100.00;101513.34;4976793;28;20140;-62
2021/09/25 04:24:07;;;;;;;26.00;13.68;;;;;;;17.43;100.00;101505.75;4978369;28;20133;-62
2021/09/25 04:26:33;;;;;;;26.85;13.13;;;;;;;17.48;100.00;101508.69;4983593;28;20862;-63
2021/09/25 04:29:00;;;;;;;29.10;13.57;;;;;;;17.46;100.00;101505.38;4967785;28;20128;-62
2021/09/25 04:31:26;;;;;;;28.35;13.48;;;;;;;17.56;100.00;101494.56;4977879;28;20054;-64
2021/09/25 04:33:53;;;;;;;27.48;12.82;;;;;;;17.24;100.00;101504.34;4973303;28;20046;-62
2021/09/25 04:36:20;;;;;;;26.50;13.98;;;;;;;17.19;100.00;101506.72;4982070;28;20145;-63
2021/09/25 04:38:46;;;;;;;25.92;13.82;;;;;;;17.15;100.00;101500.94;4969536;28;20137;-62
2021/09/25 04:41:13;;;;;;;31.38;13.52;;;;;;;16.94;100.00;101513.94;4982668;28;20081;-63
2021/09/25 04:43:39;;;;;;;25.73;13.52;;;;;;;17.09;100.00;101506.94;4975236;28;20149;-62
2021/09/25 04:46:06;;;;;;;27.90;14.13;;;;;;;17.26;100.00;101494.41;4969300;28;20153;-64
2021/09/25 04:48:32;;;;;;;35.08;14.35;;;;;;;16.89;100.00;101503.03;4976639;28;20046;-64
2021/09/25 04:50:59;;;;;;;25.65;12.82;;;;;;;16.99;100.00;101495.69;4973058;28;20145;-62
2021/09/25 04:53:25;;;;;;;27.13;13.43;;;;;;;17.09;100.00;101506.09;4979037;28;20094;-62
2021/09/25 04:55:52;;;;;;;32.53;14.90;;;;;;;16.74;100.00;101501.06;4976606;28;20134;-61
2021/09/25 04:58:19;;;;;;;29.92;12.57;;;;;;;16.65;100.00;101496.78;4971537;28;20062;-63
2021/09/25 05:00:45;;;;;;;29.15;13.48;;;;;;;17.20;100.00;101498.56;4975852;28;20050;-62
2021/09/25 05:03:12;;;;;;;21.02;11.30;;;;;;;17.19;100.00;101493.47;4971522;28;20506;-61
2021/09/25 05:05:39;;;;;;;26.85;12.57;;;;;;;17.22;100.00;101497.59;4978837;28;20475;-62
2021/09/25 05:08:05;;;;;;;25.63;12.77;;;;;;;16.90;100.00;101494.09;4972899;28;20137;-61
2021/09/25 05:10:32;;;;;;;26.98;13.52;;;;;;;17.30;100.00;101494.88;4973876;28;20436;-61
2021/09/25 05:12:58;;;;;;;22.35;12.13;;;;;;;17.13;100.00;101487.03;4967400;28;20149;-61
2021/09/25 05:15:24;;;;;;;23.88;12.23;;;;;;;17.12;100.00;101501.25;4975349;28;20141;-61
2021/09/25 05:17:51;;;;;;;27.10;13.02;;;;;;;17.24;100.00;101499.06;4978055;28;20153;-63
2021/09/25 05:20:17;;;;;;;25.55;13.10;;;;;;;17.12;100.00;101505.75;4967806;28;20089;-63
2021/09/25 05:22:44;;;;;;;20.88;11.23;;;;;;;17.41;100.00;101509.59;4978411;28;20090;-61
2021/09/25 05:25:11;;;;;;;23.42;11.45;;;;;;;17.56;100.00;101506.00;4964659;28;20124;-61
2021/09/25 05:27:37;;;;;;;23.95;11.63;;;;;;;17.73;100.00;101512.00;4977380;28;20153;-60
2021/09/25 05:30:05;;;;;;;25.85;13.48;;;;;;;17.74;100.00;101513.69;4972649;28;20133;-61
2021/09/25 05:32:32;;;;;;;27.67;12.85;;;;;;;17.41;100.00;101513.06;4981544;28;20480;-61
2021/09/25 05:34:59;;;;;;;25.10;12.55;;;;;;;17.58;100.00;101527.88;4974651;28;20134;-61
2021/09/25 05:37:25;;;;;;;21.45;11.23;;;;;;;17.37;100.00;101525.84;4974857;28;20559;-61
2021/09/25 05:39:55;;;;;;;24.23;11.60;;;;;;;16.92;100.00;101534.50;4972185;28;20105;-62
2021/09/25 05:42:25;;;;;;;19.60;10.98;;;;;;;16.74;100.00;101527.56;4973081;28;20554;-62
2021/09/25 05:44:54;;;;;;;26.42;11.95;;;;;;;16.84;100.00;101534.50;4972468;28;20208;-62
2021/09/25 05:47:21;;;;;;;22.20;12.13;;;;;;;16.67;100.00;101539.81;4980887;28;20081;-62
2021/09/25 05:49:48;;;;;;;23.75;12.45;;;;;;;16.88;100.00;101533.19;4973934;28;20392;-61
2021/09/25 05:52:16;;;;;;;20.13;10.73;;;;;;;17.12;100.00;101527.78;4976238;28;20050;-62
2021/09/25 05:54:43;;;;;;;26.85;12.27;;;;;;;17.31;100.00;101526.53;4965185;28;20143;-62
2021/09/25 05:57:10;;;;;;;26.48;11.75;;;;;;;17.35;100.00;101522.53;4975853;28;20051;-61
2021/09/25 05:59:37;;;;;;;23.50;12.35;;;;;;;17.22;100.00;101530.22;4964751;28;20141;-62
2021/09/25 06:02:04;;;;;;;23.52;11.43;;;;;;;17.68;100.00;101532.97;4977045;28;20158;-62
2021/09/25 06:04:32;;;;;;;23.73;11.57;;;;;;;17.73;100.00;101524.47;4978410;28;20102;-61
2021/09/25 06:06:58;;;;;;;20.35;10.43;;;;;;;17.66;100.00;101529.66;4974523;28;20059;-61
2021/09/25 06:09:25;;;;;;;20.33;11.90;;;;;;;17.76;100.00;101524.94;4980484;28;20133;-61
2021/09/25 06:11:51;;;;;;;24.60;11.77;;;;;;;17.83;100.00;101529.53;4974919;28;20512;-62
2021/09/25 06:14:20;;;;;;;24.75;11.77;;;;;;;17.58;100.00;101538.50;4979840;28;20058;-62
2021/09/25 06:16:47;;;;;;;22.05;11.80;;;;;;;17.24;100.00;101541.47;4978782;28;20077;-58
2021/09/25 06:19:14;;;;;;;25.83;10.45;;;;;;;17.30;100.00;101540.78;4980054;28;20056;-62
2021/09/25 06:21:42;;;;;;;19.90;11.05;;;;;;;17.72;100.00;101536.06;4977211;28;20141;-62
2021/09/25 06:24:09;;;;;;;24.90;10.23;;;;;;;17.86;100.00;101543.31;4978148;28;20220;-62
2021/09/25 06:26:36;;;;;;;22.33;10.80;;;;;;;17.70;100.00;101546.03;4981330;28;20473;-61
2021/09/25 06:29:03;;;;;;;24.02;12.07;;;;;;;17.84;100.00;101545.31;4976143;28;20054;-61
2021/09/25 06:31:30;;;;;;;24.58;12.13;;;;;;;17.92;100.00;101539.13;4977522;28;20054;-62
2021/09/25 06:33:56;;;;;;;26.52;11.68;;;;;;;17.90;100.00;101541.13;4977098;28;20050;-61
2021/09/25 06:36:23;;;;;;;25.35;11.75;;;;;;;18.10;99.65;101538.81;4974779;28;20534;-62
2021/09/25 06:38:50;;;;;;;23.00;12.10;;;;;;;17.26;100.00;101541.31;4982981;28;20169;-60
2021/09/25 06:41:17;;;;;;;23.38;12.55;;;;;;;17.33;100.00;101539.63;4974944;28;20059;-61
2021/09/25 06:43:45;;;;;;;21.70;11.68;;;;;;;17.31;100.00;101539.78;4984005;28;20146;-62
2021/09/25 06:46:13;;;;;;;26.63;12.73;;;;;;;17.54;100.00;101534.53;4972943;28;20130;-62
2021/09/25 06:48:41;;;;;;;30.40;13.20;;;;;;;17.48;100.00;101545.00;4977493;28;20054;-61
2021/09/25 06:51:07;;;;;;;27.35;12.45;;;;;;;17.62;100.00;101540.78;4972159;28;20050;-61
2021/09/25 06:53:34;;;;;;;28.40;12.80;;;;;;;17.85;100.00;101544.28;4982816;28;20085;-61
2021/09/25 06:56:00;;;;;;;25.80;12.10;;;;;;;17.87;100.00;101541.47;4974174;28;20082;-61
2021/09/25 06:58:27;;;;;;;26.75;12.32;;;;;;;17.59;100.00;101547.25;4981902;28;20149;-60
2021/09/25 07:00:53;;;;;;;26.00;12.85;;;;;;;17.84;100.00;101547.13;4974091;28;20166;-61
2021/09/25 07:03:20;;;;;;;27.23;13.45;;;;;;;18.08;100.00;101536.34;4971575;28;20074;-60
2021/09/25 07:05:47;;;;;;;23.63;11.85;;;;;;;18.21;99.93;101540.19;4978180;28;20050;-60
2021/09/25 07:08:13;;;;;;;27.20;12.60;;;;;;;18.25;99.72;101533.53;4972947;28;20573;-61
2021/09/25 07:10:40;;;;;;;28.98;12.98;;;;;;;17.43;100.00;101540.22;4981641;28;20129;-60
2021/09/25 07:13:06;;;;;;;25.25;12.63;;;;;;;17.23;100.00;101544.28;4982561;28;20396;-62
2021/09/25 07:15:33;;;;;;;25.33;12.60;;;;;;;17.11;100.00;101542.03;4969481;28;20054;-62
2021/09/25 07:17:59;;;;;;;33.42;14.45;;;;;;;17.00;100.00;101548.53;4976802;28;20150;-62
2021/09/25 07:20:26;;;;;;;24.67;12.57;;;;;;;17.59;100.00;101555.22;4969652;28;20060;-61
2021/09/25 07:22:52;;;;;;;30.20;13.45;;;;;;;17.83;100.00;101556.88;4982537;28;20149;-62
2021/09/25 07:25:23;;;;;;;26.38;13.48;;;;;;;17.72;100.00;101562.59;4971283;28;20054;-60
2021/09/25 07:27:50;;;;;;;31.00;14.27;;;;;;;18.00;100.00;101562.13;4982402;28;20148;-61
2021/09/25 07:30:17;;;;;;;31.10;14.82;;;;;;;18.03;100.00;101569.72;4971104;28;20156;-61
2021/09/25 07:32:44;;;;;;;26.63;12.73;;;;;;;17.98;100.00;101573.75;4975469;28;20065;-61
2021/09/25 07:35:13;;;;;;;27.25;13.18;;;;;;;17.54;100.00;101569.03;4977917;28;20089;-61
2021/09/25 07:37:39;;;;;;;;;;;;;;;17.31;100.00;101579.56;4972152;28;20355;-62
2021/09/25 07:40:06;;;;;;;30.98;13.70;;;;;;;18.04;100.00;101566.91;4977908;28;20077;-61
2021/09/25 07:42:33;;;;;;;33.25;13.80;;;;;;;18.14;100.00;101564.81;4967115;28;20449;-61
2021/09/25 07:44:59;;;;;;;27.77;13.82;;;;;;;18.41;99.91;101570.59;4972601;28;20487;-61
2021/09/25 07:47:26;;;;;;;33.15;14.32;;;;;;;18.55;97.95;101574.28;4977417;28;20082;-62
2021/09/25 07:49:53;;;;;;;29.58;14.68;;;;;;;18.13;100.00;101575.63;4969816;28;20065;-62
2021/09/25 07:52:19;;;;;;;29.65;14.27;;;;;;;18.07;100.00;101584.28;4980004;28;20146;-61
2021/09/25 07:54:46;;;;;;;33.70;14.27;;;;;;;17.63;100.00;101582.22;4977844;28;20154;-62
2021/09/25 07:57:13;;;;;;;30.50;14.65;;;;;;;17.56;100.00;101600.66;4975079;28;20137;-61
2021/09/25 07:59:39;;;;;;;30.15;14.00;;;;;;;17.70;100.00;101596.44;4973464;28;20153;-62
2021/09/25 08:02:06;;;;;;;29.40;13.82;;;;;;;17.66;100.00;101598.63;4976996;28;20047;-63
2021/09/25 08:04:33;;;;;;;30.70;16.33;;;;;;;17.61;100.00;101598.31;4980534;28;20054;-63
2021/09/25 08:07:00;;;;;;;32.08;14.00;;;;;;;17.89;100.00;101600.50;4971655;28;20819;-63
2021/09/25 08:09:27;;;;;;;29.13;14.93;;;;;;;18.01;100.00;101599.09;4982131;28;20063;-62
2021/09/25 08:11:53;;;;;;;29.90;15.07;;;;;;;17.57;100.00;101605.78;4967974;28;20359;-62
2021/09/25 08:14:20;;;;;;;30.55;15.82;;;;;;;18.12;100.00;101617.28;4978068;28;20050;-61
2021/09/25 08:16:46;;;;;;;32.08;14.90;;;;;;;18.33;100.00;101613.16;4971017;28;20090;-62
2021/09/25 08:19:13;;;;;;;29.35;13.98;;;;;;;17.97;100.00;101619.03;4979954;28;20096;-63
2021/09/25 08:21:39;;;;;;;32.58;15.80;;;;;;;17.84;100.00;101624.06;4979295;28;20073;-60
2021/09/25 08:24:06;;;;;;;46.67;15.30;;;;;;;17.91;100.00;101620.56;4975687;28;20102;-63
2021/09/25 08:26:32;;;;;;;28.75;14.55;;;;;;;18.19;100.00;101622.72;4972223;28;20077;-63
2021/09/25 08:28:59;;;;;;;32.88;15.73;;;;;;;18.22;100.00;101621.53;4970593;28;20092;-63
2021/09/25 08:31:28;;;;;;;38.60;15.65;;;;;;;18.09;100.00;101630.06;4977294;28;20050;-63
2021/09/25 08:33:54;;;;;;;31.30;16.05;;;;;;;18.33;100.00;101632.56;4975372;28;20054;-63
2021/09/25 08:36:21;;;;;;;30.45;15.57;;;;;;;18.05;100.00;101624.28;4978593;28;20050;-62
2021/09/25 08:39:05;;;;;;;30.42;15.55;;;;;;;18.72;98.57;101628.91;4971762;28;20869;-62
2021/09/25 08:41:32;;;;;;;40.08;15.77;;;;;;;18.23;100.00;101628.47;4975605;28;20464;-62
2021/09/25 08:43:59;;;;;;;33.08;15.70;;;;;;;18.27;100.00;101632.44;4975302;28;20145;-62
2021/09/25 08:46:25;;;;;;;30.63;14.57;;;;;;;18.04;100.00;101638.56;4969286;28;20076;-63
2021/09/25 08:48:53;;;;;;;25.85;13.60;;;;;;;18.51;100.00;101636.75;4965567;28;20061;-62
2021/09/25 08:51:20;;;;;;;33.38;16.10;;;;;;;18.57;100.00;101638.69;4969881;28;20373;-63
2021/09/25 08:53:46;;;;;;;30.35;15.60;;;;;;;18.93;97.06;101638.88;4973665;28;20077;-63
2021/09/25 08:56:13;;;;;;;33.15;15.65;;;;;;;19.03;96.02;101638.59;4965918;28;21030;-63
2021/09/25 08:58:41;;;;;;;35.05;15.55;;;;;;;18.88;97.26;101651.88;4976624;28;20545;-62
2021/09/25 09:01:17;;;;;;;36.65;15.98;;;;;;;18.56;99.10;101655.59;4979740;28;20054;-63
2021/09/25 09:03:46;;;;;;;33.03;15.43;;;;;;;18.81;98.25;101660.75;4971942;28;20058;-61
2021/09/25 09:06:24;;;;;;;30.67;14.63;;;;;;;18.82;100.00;101659.72;4980891;28;20104;-61
2021/09/25 09:08:52;;;;;;;33.42;16.50;;;;;;;18.27;100.00;101659.84;4964726;28;20145;-63
2021/09/25 09:11:21;;;;;;;37.20;16.48;;;;;;;18.48;100.00;101658.34;4979700;28;20529;-63
2021/09/25 09:13:55;;;;;;;38.03;16.80;;;;;;;18.17;100.00;101661.91;4969623;28;20062;-61
2021/09/25 09:16:21;;;;;;;34.35;15.93;;;;;;;18.37;100.00;101660.41;4979443;28;20069;-61
2021/09/25 09:18:50;;;;;;;33.55;16.85;;;;;;;18.66;100.00;101658.03;4975358;28;20373;-60
2021/09/25 09:21:19;;;;;;;47.72;17.20;;;;;;;18.70;100.00;101652.19;4972625;28;20074;-60
2021/09/25 09:23:48;;;;;;;42.83;16.85;;;;;;;18.71;100.00;101656.47;4970233;28;20567;-61
2021/09/25 09:26:18;;;;;;;38.10;16.33;;;;;;;19.14;97.39;101655.94;4970965;28;20514;-61
2021/09/25 09:28:46;;;;;;;33.15;16.10;;;;;;;19.44;94.48;101658.59;4976761;28;20750;-62
2021/09/25 09:31:14;;;;;;;35.92;16.55;;;;;;;19.55;93.25;101655.47;4972916;28;20571;-61
2021/09/25 09:33:45;;;;;;;33.67;17.52;;;;;;;19.27;94.73;101661.44;4976049;28;20161;-61
2021/09/25 09:36:36;;;;;;;33.15;16.42;;;;;;;19.42;94.07;101663.28;4967828;28;20112;-59
2021/09/25 09:39:04;;;;;;;30.55;15.75;;;;;;;18.82;100.00;101657.94;4978822;28;20699;-61
2021/09/25 09:41:38;;;;;;;36.80;17.08;;;;;;;19.10;97.14;101666.09;4977603;28;20081;-61
2021/09/25 09:44:23;;;;;;;42.00;17.15;;;;;;;19.44;93.75;101664.72;4975054;28;20086;-61
2021/09/25 09:46:50;;;;;;;42.42;17.92;;;;;;;19.52;94.28;101669.97;4976898;28;20058;-61
2021/09/25 09:49:29;;;;;;;40.33;17.05;;;;;;;19.37;96.12;101671.81;4970767;28;21639;-63
2021/09/25 09:52:03;;;;;;;42.58;19.73;;;;;;;19.08;96.65;101681.41;4973446;28;20144;-61
2021/09/25 09:54:37;;;;;;;35.85;16.48;;;;;;;18.78;100.00;101672.56;4973419;28;20145;-63
2021/09/25 09:57:09;;;;;;;40.40;18.00;;;;;;;18.72;100.00;101670.63;4976242;28;20058;-61
2021/09/25 09:59:37;;;;;;;38.55;18.08;;;;;;;19.01;99.76;101671.69;4971466;28;20052;-61
2021/09/25 10:02:05;;;;;;;41.55;19.40;;;;;;;19.23;97.89;101667.31;4976692;28;20408;-61
2021/09/25 10:04:32;;;;;;;37.33;17.60;;;;;;;19.04;98.13;101668.69;4970589;28;20050;-62
2021/09/25 10:07:00;;;;;;;45.25;19.00;;;;;;;19.13;98.73;101663.09;4973866;28;20141;-61
2021/09/25 10:09:29;;;;;;;39.50;18.57;;;;;;;19.47;95.54;101667.03;4979685;28;20145;-61
2021/09/25 10:12:01;;;;;;;43.72;18.10;;;;;;;19.55;94.85;101666.94;4972712;28;20174;-61
2021/09/25 10:14:31;;;;;;;36.08;18.13;;;;;;;19.23;98.34;101665.50;4978032;28;20137;-62
2021/09/25 10:17:00;;;;;;;36.17;17.25;;;;;;;19.87;94.43;101664.06;4967655;28;20189;-62
2021/09/25 10:19:33;;;;;;;33.88;15.63;;;;;;;20.11;91.30;101671.72;4966646;28;20209;-61
2021/09/25 10:22:11;;;;;;;39.67;17.98;;;;;;;20.21;90.92;101666.09;4970825;28;20567;-62
2021/09/25 10:24:42;;;;;;;40.60;18.08;;;;;;;19.75;92.69;101677.84;4976327;28;20728;-61
2021/09/25 10:27:10;;;;;;;38.90;19.30;;;;;;;19.34;95.95;101678.31;4976949;28;20133;-61
2021/09/25 10:29:48;;;;;;;43.90;18.13;;;;;;;19.36;95.91;101676.28;4968572;28;20046;-62
2021/09/25 10:32:24;;;;;;;37.92;19.70;;;;;;;19.71;94.61;101665.94;4972668;28;20208;-61
2021/09/25 10:35:23;;;;;;;43.47;19.67;;;;;;;20.01;92.78;101670.34;4969519;28;20065;-61
2021/09/25 10:37:52;;;;;;;35.92;19.00;;;;;;;20.06;91.90;101668.78;4979718;28;20108;-62
2021/09/25 10:40:42;;;;;;;39.25;19.20;;;;;;;20.19;91.26;101673.44;4972069;28;20051;-62
2021/09/25 10:43:14;;;;;;;33.70;16.40;;;;;;;20.34;90.84;101663.53;4978702;28;20101;-62
2021/09/25 10:45:41;;;;;;;42.00;18.33;;;;;;;19.89;94.24;101667.38;4967488;28;20132;-62
2021/09/25 10:48:23;;;;;;;41.50;19.42;;;;;;;19.69;96.79;101664.44;4976754;28;20520;-61
2021/09/25 10:50:58;;;;;;;54.55;21.63;;;;;;;19.54;97.33;101659.97;4971579;28;20436;-62
2021/09/25 10:53:44;;;;;;;46.65;22.75;;;;;;;19.97;94.74;101661.91;4978750;28;20056;-63
2021/09/25 10:56:20;;;;;;;43.38;21.23;;;;;;;20.11;94.21;101663.72;4977315;28;20165;-62
2021/09/25 10:59:00;;;;;;;47.08;22.25;;;;;;;20.45;90.99;101659.53;4975223;28;20086;-62
2021/09/25 11:01:53;;;;;;;48.40;22.08;;;;;;;20.78;87.79;101647.50;4978273;28;20042;-62
2021/09/25 11:04:22;;;;;;;44.58;20.92;;;;;;;20.96;87.73;101655.06;4982520;28;20050;-60
2021/09/25 11:06:59;;;;;;;36.33;20.45;;;;;;;21.20;87.87;101651.09;4982047;28;20400;-59
2021/09/25 11:09:41;;;;;;;44.33;21.55;;;;;;;20.99;88.31;101649.31;4976237;28;20088;-62